Time;durP1;ratioP1;P1;durP2;ratioP2;P2;SDS_P1;SDS_P2;PMS_P1;PMS_P2;Temp;Humidity;BMP_temperature;BMP_pressure;BME280_temperature;BME280_humidity;BME280_pressure;Samples;Min_cycle;Max_cycle;Signal;HPM_P1;HPM_P2
2022/10/27 00:00:15;;;;;;;;;;;13.20;99.90;;;;;;5094794;28;19936;-81
2022/10/27 00:02:43;;;;;;;;;;;13.30;99.90;;;;;;5083213;28;19934;-81
2022/10/27 00:05:12;;;;;;;;;;;13.30;99.90;;;;;;5094954;28;20353;-81
2022/10/27 00:07:40;;;;;;;;;;;13.30;99.90;;;;;;5082068;28;19932;-81
2022/10/27 00:10:08;;;;;;;;;;;13.30;99.90;;;;;;5100738;28;20257;-79
2022/10/27 00:12:36;;;;;;;;;;;13.20;99.90;;;;;;5086336;28;19928;-80
2022/10/27 00:15:03;;;;;;;;;;;13.20;99.90;;;;;;5088521;28;19965;-80
2022/10/27 00:17:31;;;;;;;;;;;13.30;99.90;;;;;;5087298;28;19924;-80
2022/10/27 00:19:58;;;;;;;;;;;13.30;99.90;;;;;;5084359;28;19947;-81
2022/10/27 00:22:28;;;;;;;;;;;13.20;99.90;;;;;;5085539;28;19932;-81
2022/10/27 00:24:56;;;;;;;;;;;13.20;99.90;;;;;;5084470;28;19932;-80
2022/10/27 00:27:23;;;;;;;;;;;13.10;99.90;;;;;;5080699;28;19932;-80
2022/10/27 00:29:50;;;;;;;;;;;13.10;99.90;;;;;;5081795;28;20669;-81
2022/10/27 00:32:18;;;;;;;;;;;13.10;99.90;;;;;;5079671;28;20443;-79
2022/10/27 00:34:45;;;;;;;;;;;13.10;99.90;;;;;;5079506;28;20023;-81
2022/10/27 00:37:12;;;;;;;;;;;13.10;99.90;;;;;;5083662;28;20456;-81
2022/10/27 00:39:39;;;;;;;;;;;13.10;99.90;;;;;;5100170;28;20018;-81
2022/10/27 00:42:09;;;;;;;;;;;13.10;99.90;;;;;;5082464;28;20342;-81
2022/10/27 00:44:40;;;;;;;;;;;13.00;99.90;;;;;;5086624;28;19936;-82
2022/10/27 00:47:11;;;;;;;;;;;13.00;99.90;;;;;;5098822;28;20322;-80
2022/10/27 00:49:39;;;;;;;;;;;13.00;99.90;;;;;;5082232;28;19932;-79
2022/10/27 00:52:09;;;;;;;;;;;13.00;99.90;;;;;;5076408;28;19932;-79
2022/10/27 00:54:39;;;;;;;;;;;13.00;99.90;;;;;;5081900;28;19981;-79
2022/10/27 00:57:10;;;;;;;;;;;13.00;99.90;;;;;;5091498;28;20748;-79
2022/10/27 00:59:38;;;;;;;;;;;12.90;99.90;;;;;;5076173;28;19955;-79
2022/10/27 01:02:05;;;;;;;;;;;12.90;99.90;;;;;;5081666;28;20014;-80
2022/10/27 01:04:35;;;;;;;;;;;12.90;99.90;;;;;;5082028;28;19928;-77
2022/10/27 01:07:01;;;;;;;;;;;12.90;99.90;;;;;;5079339;28;20035;-79
2022/10/27 01:09:29;;;;;;;;;;;12.90;99.90;;;;;;5082315;28;19967;-79
2022/10/27 01:11:56;;;;;;;;;;;13.00;99.90;;;;;;5087450;28;19963;-79
2022/10/27 01:14:24;;;;;;;;;;;13.00;99.90;;;;;;5084925;28;19950;-79
2022/10/27 01:16:55;;;;;;;;;;;12.90;99.90;;;;;;5083832;28;20237;-79
2022/10/27 01:19:38;;;;;;;;;;;12.90;99.90;;;;;;5100911;28;19928;-80
2022/10/27 01:22:07;;;;;;;;;;;12.90;99.90;;;;;;5088400;28;19932;-79
2022/10/27 01:24:41;;;;;;;;;;;12.90;99.90;;;;;;5086678;28;19967;-81
2022/10/27 01:27:15;;;;;;;;;;;12.90;99.90;;;;;;5100028;28;20694;-81
2022/10/27 01:29:54;;;;;;;;;;;12.80;99.90;;;;;;5086584;28;19967;-80
2022/10/27 01:32:27;;;;;;;;;;;12.80;99.90;;;;;;5080629;28;19932;-79
2022/10/27 01:34:57;;;;;;;;;;;12.80;99.90;;;;;;5085870;28;19943;-81
2022/10/27 01:37:28;;;;;;;;;;;12.80;99.90;;;;;;5083755;28;20012;-80
2022/10/27 01:40:01;;;;;;;;;;;12.80;99.90;;;;;;5087368;28;19939;-81
2022/10/27 01:42:31;;;;;;;;;;;12.80;99.90;;;;;;5079162;28;19928;-79
2022/10/27 01:44:58;;;;;;;;;;;12.80;99.90;;;;;;5101046;28;20007;-81
2022/10/27 01:47:27;;;;;;;;;;;12.80;99.90;;;;;;5087121;28;19928;-80
2022/10/27 01:49:54;;;;;;;;;;;12.80;99.90;;;;;;5085184;28;19932;-80
2022/10/27 01:52:41;;;;;;;;;;;12.70;99.90;;;;;;5089214;28;19939;-80
2022/10/27 01:55:10;;;;;;;;;;;12.70;99.90;;;;;;5084240;28;19928;-80
2022/10/27 01:57:43;;;;;;;;;;;12.70;99.90;;;;;;5100654;28;20407;-80
2022/10/27 02:00:10;;;;;;;;;;;12.70;99.90;;;;;;5089359;28;19924;-80
2022/10/27 02:02:43;;;;;;;;;;;12.70;99.90;;;;;;5083453;28;19929;-78
2022/10/27 02:05:15;;;;;;;;;;;14.20;99.90;;;;;;5082373;28;19932;-79
2022/10/27 02:07:49;;;;;;;;;;;12.70;99.90;;;;;;5081975;28;20014;-79
2022/10/27 02:10:17;;;;;;;;;;;12.70;99.90;;;;;;5097393;28;19932;-79
2022/10/27 02:12:45;;;;;;;;;;;12.70;99.90;;;;;;5083749;28;19932;-79
2022/10/27 02:15:17;;;;;;;;;;;12.70;99.90;;;;;;5084696;28;20345;-79
2022/10/27 02:17:47;;;;;;;;;;;12.70;99.90;;;;;;5082441;28;19989;-81
2022/10/27 02:20:18;;;;;;;;;;;12.70;99.90;;;;;;5084627;28;19933;-78
2022/10/27 02:22:46;;;;;;;;;;;12.70;99.90;;;;;;5079774;28;19935;-80
2022/10/27 02:25:14;;;;;;;;;;;12.70;99.90;;;;;;5086456;28;19964;-79
2022/10/27 02:27:44;;;;;;;;;;;12.70;99.90;;;;;;5085505;28;20395;-79
2022/10/27 02:30:15;;;;;;;;;;;12.70;99.90;;;;;;5099028;28;21204;-79
2022/10/27 02:32:42;;;;;;;;;;;12.60;99.90;;;;;;5085163;28;20394;-79
2022/10/27 02:35:11;;;;;;;;;;;12.60;99.90;;;;;;5076047;28;20334;-80
2022/10/27 02:37:40;;;;;;;;;;;12.50;99.90;;;;;;5083103;28;20391;-77
2022/10/27 02:40:08;;;;;;;;;;;12.50;99.90;;;;;;5080384;28;20383;-78
2022/10/27 02:42:35;;;;;;;;;;;12.40;99.90;;;;;;5100442;28;19939;-78
2022/10/27 02:45:02;;;;;;;;;;;12.40;99.90;;;;;;5080201;28;20758;-77
2022/10/27 02:47:29;;;;;;;;;;;12.40;99.90;;;;;;5080001;28;19932;-77
2022/10/27 02:49:56;;;;;;;;;;;12.30;99.90;;;;;;5083223;28;20376;-78
2022/10/27 02:52:25;;;;;;;;;;;12.20;99.90;;;;;;5082411;28;19961;-78
2022/10/27 02:54:52;;;;;;;;;;;12.20;99.90;;;;;;5083582;28;19935;-78
2022/10/27 02:57:19;;;;;;;;;;;12.20;99.90;;;;;;5074233;28;19932;-78
2022/10/27 02:59:46;;;;;;;;;;;12.20;99.90;;;;;;5078752;28;20311;-78
2022/10/27 03:02:13;;;;;;;;;;;12.20;99.90;;;;;;5081660;28;19928;-79
2022/10/27 03:04:40;;;;;;;;;;;12.20;99.90;;;;;;5081337;28;19932;-79
2022/10/27 03:07:07;;;;;;;;;;;12.20;99.90;;;;;;5081055;28;19974;-77
2022/10/27 03:09:36;;;;;;;;;;;12.20;99.90;;;;;;5087316;28;19987;-77
2022/10/27 03:12:03;;;;;;;;;;;12.20;99.90;;;;;;5107371;28;19989;-77
2022/10/27 03:14:30;;;;;;;;;;;12.30;99.90;;;;;;5088607;28;19939;-79
2022/10/27 03:16:57;;;;;;;;;;;12.30;99.90;;;;;;5088842;28;20428;-77
2022/10/27 03:19:27;;;;;;;;;;;12.30;99.90;;;;;;5089917;28;19924;-78
2022/10/27 03:21:54;;;;;;;;;;;12.30;99.90;;;;;;5107796;28;20211;-78
2022/10/27 03:24:21;;;;;;;;;;;12.30;99.90;;;;;;5091596;28;19924;-77
2022/10/27 03:26:49;;;;;;;;;;;12.40;99.90;;;;;;5091724;28;19928;-78
2022/10/27 03:29:16;;;;;;;;;;;12.40;99.90;;;;;;5073522;28;20021;-77
2022/10/27 03:31:43;;;;;;;;;;;12.40;99.90;;;;;;5085643;28;19928;-77
2022/10/27 03:34:10;;;;;;;;;;;12.50;99.90;;;;;;5090544;28;19997;-77
2022/10/27 03:36:37;;;;;;;;;;;12.50;99.90;;;;;;5088149;28;19924;-77
2022/10/27 03:39:04;;;;;;;;;;;12.50;99.90;;;;;;5080550;28;19982;-77
2022/10/27 03:41:31;;;;;;;;;;;12.50;99.90;;;;;;5084970;28;20349;-78
2022/10/27 03:43:59;;;;;;;;;;;12.50;99.90;;;;;;5107053;28;19938;-78
2022/10/27 03:46:26;;;;;;;;;;;12.50;99.90;;;;;;5103255;28;19943;-78
2022/10/27 03:48:53;;;;;;;;;;;12.50;99.90;;;;;;5089146;28;19968;-78
2022/10/27 03:51:20;;;;;;;;;;;12.50;99.90;;;;;;5101344;28;19925;-77
2022/10/27 03:53:47;;;;;;;;;;;12.50;99.90;;;;;;5089428;28;20349;-78
2022/10/27 03:56:14;;;;;;;;;;;12.50;99.90;;;;;;5086663;28;19929;-78
2022/10/27 03:58:41;;;;;;;;;;;12.50;99.90;;;;;;5088795;28;19980;-78
2022/10/27 04:01:10;;;;;;;;;;;12.50;99.90;;;;;;5089267;28;19936;-78
2022/10/27 04:03:37;;;;;;;;;;;12.50;99.90;;;;;;5087037;28;19932;-78
2022/10/27 04:06:04;;;;;;;;;;;12.50;99.90;;;;;;5105693;28;19932;-78
2022/10/27 04:08:31;;;;;;;;;;;12.50;99.90;;;;;;5103124;28;20762;-78
2022/10/27 04:10:58;;;;;;;;;;;12.50;99.90;;;;;;5087567;28;19967;-78
2022/10/27 04:13:25;;;;;;;;;;;12.50;99.90;;;;;;5104754;28;19977;-78
2022/10/27 04:15:52;;;;;;;;;;;12.50;99.90;;;;;;5092708;28;20006;-79
2022/10/27 04:18:20;;;;;;;;;;;12.50;99.90;;;;;;5094809;28;20005;-78
2022/10/27 04:20:47;;;;;;;;;;;12.40;99.90;;;;;;5084368;28;19934;-78
2022/10/27 04:23:14;;;;;;;;;;;12.50;99.90;;;;;;5091639;28;19932;-82
2022/10/27 04:25:41;;;;;;;;;;;12.40;99.90;;;;;;5093493;28;19934;-78
2022/10/27 04:28:08;;;;;;;;;;;12.40;99.90;;;;;;5099732;28;19928;-77
2022/10/27 04:30:35;;;;;;;;;;;12.40;99.90;;;;;;5100506;28;20636;-79
2022/10/27 04:33:03;;;;;;;;;;;12.40;99.90;;;;;;5096510;28;19989;-79
2022/10/27 04:35:31;;;;;;;;;;;12.40;99.90;;;;;;5099107;28;19950;-79
2022/10/27 04:37:58;;;;;;;;;;;12.30;99.90;;;;;;5097533;28;19940;-79
2022/10/27 04:40:26;;;;;;;;;;;12.30;99.90;;;;;;5097275;28;19932;-78
2022/10/27 04:42:53;;;;;;;;;;;10.40;99.90;;;;;;5095132;28;19943;-76
2022/10/27 04:45:20;;;;;;;;;;;12.40;99.90;;;;;;5091116;28;20025;-77
2022/10/27 04:47:47;;;;;;;;;;;12.40;99.90;;;;;;5094517;28;19929;-78
2022/10/27 04:50:14;;;;;;;;;;;12.30;99.90;;;;;;5097051;28;19928;-80
2022/10/27 04:52:43;;;;;;;;;;;12.30;99.90;;;;;;5096507;28;20372;-76
2022/10/27 04:55:10;;;;;;;;;;;12.30;99.90;;;;;;5093431;28;19972;-76
2022/10/27 04:57:37;;;;;;;;;;;12.20;99.90;;;;;;5125524;22;20026;-78
2022/10/27 05:00:05;;;;;;;;;;;12.20;99.90;;;;;;5085101;28;20140;-77
2022/10/27 05:02:31;;;;;;;;;;;12.20;99.90;;;;;;5079128;28;19924;-78
2022/10/27 05:04:58;;;;;;;;;;;12.20;99.90;;;;;;5081476;28;19928;-78
2022/10/27 05:07:25;;;;;;;;;;;12.10;99.90;;;;;;5087967;28;19932;-78
2022/10/27 05:09:53;;;;;;;;;;;12.10;99.90;;;;;;5092429;28;19939;-80
2022/10/27 05:12:20;;;;;;;;;;;12.00;99.90;;;;;;5105861;28;19939;-78
2022/10/27 05:14:47;;;;;;;;;;;12.00;99.90;;;;;;5082319;28;20388;-79
2022/10/27 05:17:14;;;;;;;;;;;12.00;99.90;;;;;;5091555;28;19924;-78
2022/10/27 05:19:41;;;;;;;;;;;12.00;99.90;;;;;;5083175;28;19993;-77
2022/10/27 05:22:07;;;;;;;;;;;11.90;99.90;;;;;;5091475;28;19924;-78
2022/10/27 05:24:34;;;;;;;;;;;11.90;99.90;;;;;;5081216;28;20269;-78
2022/10/27 05:27:02;;;;;;;;;;;11.80;99.90;;;;;;5077208;28;20026;-78
2022/10/27 05:29:30;;;;;;;;;;;11.50;99.90;;;;;;5094948;27;19924;-78
2022/10/27 05:32:02;;;;;;;;;;;11.80;99.90;;;;;;5081458;28;20015;-77
2022/10/27 05:34:29;;;;;;;;;;;11.80;99.90;;;;;;5100324;28;19924;-77
2022/10/27 05:36:56;;;;;;;;;;;11.80;99.90;;;;;;5079815;28;19951;-77
2022/10/27 05:39:23;;;;;;;;;;;11.80;99.90;;;;;;5087119;28;19928;-76
2022/10/27 05:41:50;;;;;;;;;;;11.70;99.90;;;;;;5086659;28;19950;-76
2022/10/27 05:44:18;;;;;;;;;;;11.70;99.90;;;;;;5094439;28;19928;-77
2022/10/27 05:46:45;;;;;;;;;;;11.70;99.90;;;;;;5083650;28;19932;-76
2022/10/27 05:49:11;;;;;;;;;;;11.60;99.90;;;;;;5082716;28;19932;-76
2022/10/27 05:51:39;;;;;;;;;;;11.60;99.90;;;;;;5081774;28;19935;-76
2022/10/27 05:54:08;;;;;;;;;;;11.60;99.90;;;;;;5086366;28;19928;-77
2022/10/27 05:56:35;;;;;;;;;;;11.60;99.90;;;;;;5089781;28;19923;-77
2022/10/27 05:59:02;;;;;;;;;;;11.50;99.90;;;;;;5078199;28;19938;-77
2022/10/27 06:01:30;;;;;;;;;;;11.40;99.90;;;;;;5073312;28;19932;-76
2022/10/27 06:03:57;;;;;;;;;;;11.50;99.90;;;;;;5078293;28;19966;-77
2022/10/27 06:06:24;;;;;;;;;;;11.40;99.90;;;;;;5615442;22;19925;-77
2022/10/27 06:08:51;;;;;;;;;;;11.40;99.90;;;;;;5079790;28;19976;-76
2022/10/27 06:11:17;;;;;;;;;;;11.40;99.90;;;;;;5074825;28;20308;-77
2022/10/27 06:13:44;;;;;;;;;;;11.40;99.90;;;;;;5079962;28;19924;-77
2022/10/27 06:16:11;;;;;;;;;;;11.30;99.90;;;;;;5071339;28;19936;-79
2022/10/27 06:18:39;;;;;;;;;;;11.30;99.90;;;;;;5080947;28;19952;-78
2022/10/27 06:21:06;;;;;;;;;;;11.30;99.90;;;;;;5100262;22;19928;-75
2022/10/27 06:23:32;;;;;;;;;;;11.30;99.90;;;;;;5085705;28;19928;-74
2022/10/27 06:25:59;;;;;;;;;;;11.30;99.90;;;;;;5079749;28;19940;-75
2022/10/27 06:28:25;;;;;;;;;;;11.30;99.90;;;;;;5071912;28;19929;-75
2022/10/27 06:30:52;;;;;;;;;;;11.50;99.90;;;;;;5075782;28;19925;-75
2022/10/27 06:33:19;;;;;;;;;;;11.40;99.90;;;;;;5084296;28;20388;-74
2022/10/27 06:35:47;;;;;;;;;;;11.50;99.90;;;;;;5080702;28;20296;-73
2022/10/27 06:38:15;;;;;;;;;;;11.60;99.90;;;;;;5083173;28;19989;-73
2022/10/27 06:40:42;;;;;;;;;;;11.90;99.90;;;;;;5256925;22;19958;-76
2022/10/27 06:43:09;;;;;;;;;;;11.90;99.90;;;;;;5077021;28;19928;-76
2022/10/27 06:45:40;;;;;;;;;;;12.00;99.90;;;;;;5077787;28;20064;-78
2022/10/27 06:48:08;;;;;;;;;;;12.20;99.90;;;;;;5088293;28;20275;-81
2022/10/27 06:50:35;;;;;;;;;;;12.40;99.90;;;;;;5089411;28;20006;-81
2022/10/27 06:53:04;;;;;;;;;;;12.60;99.90;;;;;;5087917;28;19928;-82
2022/10/27 06:55:32;;;;;;;;;;;12.80;99.90;;;;;;5089297;28;19932;-82
2022/10/27 06:57:59;;;;;;;;;;;13.20;99.90;;;;;;5084380;28;19931;-81
2022/10/27 07:00:26;;;;;;;;;;;13.50;99.90;;;;;;5085320;28;20374;-80
2022/10/27 07:02:53;;;;;;;;;;;13.90;99.90;;;;;;5088170;28;19932;-82
2022/10/27 07:05:21;;;;;;;;;;;14.20;99.90;;;;;;5090669;28;19935;-80
2022/10/27 07:07:48;;;;;;;;;;;14.50;99.90;;;;;;5084737;28;19942;-80
2022/10/27 07:10:18;;;;;;;;;;;14.80;99.90;;;;;;5088854;28;20000;-77
2022/10/27 07:12:53;;;;;;;;;;;15.00;99.90;;;;;;5098517;28;19932;-78
2022/10/27 07:15:23;;;;;;;;;;;15.10;99.90;;;;;;5090646;28;19932;-81
2022/10/27 07:17:56;;;;;;;;;;;15.30;99.90;;;;;;5082799;28;19932;-78
2022/10/27 07:20:25;;;;;;;;;;;15.80;99.90;;;;;;5080312;28;20002;-81
2022/10/27 07:22:53;;;;;;;;;;;15.90;99.90;;;;;;5088844;28;19946;-79
2022/10/27 07:25:22;;;;;;;;;;;16.30;99.90;;;;;;5094134;28;20012;-80
2022/10/27 07:27:52;;;;;;;;;;;16.70;99.90;;;;;;5119887;27;19924;-81
2022/10/27 07:30:28;;;;;;;;;;;17.10;99.90;;;;;;5084494;28;19962;-79
2022/10/27 07:32:56;;;;;;;;;;;17.50;99.90;;;;;;5091411;28;19924;-79
2022/10/27 07:35:24;;;;;;;;;;;17.80;99.90;;;;;;5087597;28;19932;-79
2022/10/27 07:37:52;;;;;;;;;;;18.10;99.90;;;;;;5093394;28;19950;-79
2022/10/27 07:40:20;;;;;;;;;;;18.40;99.90;;;;;;5094795;28;20416;-79
2022/10/27 07:42:49;;;;;;;;;;;18.50;99.90;;;;;;5087887;28;19936;-81
2022/10/27 07:45:17;;;;;;;;;;;18.70;99.90;;;;;;5088445;28;19932;-79
2022/10/27 07:47:46;;;;;;;;;;;18.90;99.90;;;;;;5089758;28;19990;-79
2022/10/27 07:50:13;;;;;;;;;;;19.10;99.90;;;;;;5089414;28;19966;-80
2022/10/27 07:52:44;;;;;;;;;;;19.30;99.90;;;;;;5086509;28;19931;-79
2022/10/27 07:55:13;;;;;;;;;;;19.40;99.90;;;;;;5096213;28;20007;-80
2022/10/27 07:57:40;;;;;;;;;;;19.60;99.90;;;;;;5114121;28;19931;-81
2022/10/27 08:00:10;;;;;;;;;;;19.70;99.90;;;;;;5111601;28;19936;-80
2022/10/27 08:02:41;;;;;;;;;;;19.90;99.90;;;;;;5114248;28;19928;-80
2022/10/27 08:05:08;;;;;;;;;;;20.00;99.90;;;;;;5114593;28;19932;-80
2022/10/27 08:07:35;;;;;;;;;;;20.10;99.90;;;;;;5114121;28;19924;-79
2022/10/27 08:10:05;;;;;;;;;;;20.30;99.90;;;;;;5096787;28;19978;-80
2022/10/27 08:12:33;;;;;;;;;;;20.40;99.90;;;;;;5097366;22;19960;-76
2022/10/27 08:14:59;;;;;;;;;;;20.80;99.90;;;;;;5067686;28;19967;-74
2022/10/27 08:17:28;;;;;;;;;;;20.80;99.90;;;;;;5067202;28;19932;-74
2022/10/27 08:19:55;;;;;;;;;;;21.00;99.90;;;;;;5082904;28;20441;-75
2022/10/27 08:22:22;;;;;;;;;;;21.00;99.90;;;;;;5080758;28;19982;-75
2022/10/27 08:24:48;;;;;;;;;;;21.00;99.90;;;;;;5073201;28;20006;-75
2022/10/27 08:27:15;;;;;;;;;;;21.00;99.90;;;;;;5065178;28;20022;-76
2022/10/27 08:29:42;;;;;;;;;;;20.90;99.90;;;;;;5063004;28;19936;-76
2022/10/27 08:32:09;;;;;;;;;;;20.90;99.90;;;;;;5065135;28;19928;-75
2022/10/27 08:34:37;;;;;;;;;;;20.80;99.90;;;;;;5060499;28;19935;-73
2022/10/27 08:37:04;;;;;;;;;;;21.00;99.90;;;;;;5065173;28;19928;-73
2022/10/27 08:39:31;;;;;;;;;;;20.80;99.90;;;;;;5067652;28;19928;-73
2022/10/27 08:42:02;;;;;;;;;;;20.80;99.90;;;;;;5059171;28;20695;-73
2022/10/27 08:44:30;;;;;;;;;;;20.70;99.90;;;;;;5064634;28;19978;-74
2022/10/27 08:46:59;;;;;;;;;;;20.60;99.90;;;;;;5055725;28;19925;-74
2022/10/27 08:49:38;;;;;;;;;;;20.50;99.90;;;;;;5059652;28;20003;-73
2022/10/27 08:52:11;;;;;;;;;;;20.40;99.90;;;;;;5064540;28;20401;-74
2022/10/27 08:54:38;;;;;;;;;;;20.20;99.90;;;;;;5056859;28;20691;-74
2022/10/27 08:57:05;;;;;;;;;;;20.10;99.90;;;;;;5067722;28;19938;-74
2022/10/27 08:59:33;;;;;;;;;;;20.00;99.90;;;;;;5067357;28;19928;-74
2022/10/27 09:02:10;;;;;;;;;;;20.00;99.90;;;;;;5065492;28;19996;-74
2022/10/27 09:05:01;;;;;;;;;;;20.00;99.90;;;;;;5072498;28;19942;-74
2022/10/27 09:07:31;;;;;;;;;;;20.00;99.90;;;;;;5051250;28;19925;-74
2022/10/27 09:09:59;;;;;;;;;;;20.10;99.90;;;;;;5065975;28;19928;-74
2022/10/27 09:12:42;;;;;;;;;;;20.20;99.90;;;;;;5060079;28;20037;-74
2022/10/27 09:15:20;;;;;;;;;;;20.30;99.90;;;;;;5062070;28;19932;-74
2022/10/27 09:17:48;;;;;;;;;;;20.40;99.90;;;;;;5058678;28;19955;-74
2022/10/27 09:20:18;;;;;;;;;;;20.50;99.90;;;;;;5059979;28;19928;-73
2022/10/27 09:22:48;;;;;;;;;;;20.70;99.90;;;;;;5064220;28;19929;-74
2022/10/27 09:25:16;;;;;;;;;;;20.60;99.90;;;;;;5060462;28;20484;-74
2022/10/27 09:27:43;;;;;;;;;;;20.60;99.90;;;;;;5056233;28;20030;-74
2022/10/27 09:30:12;;;;;;;;;;;20.60;99.90;;;;;;5059217;28;20018;-74
2022/10/27 09:32:40;;;;;;;;;;;20.60;99.90;;;;;;5062568;28;19929;-74
2022/10/27 09:35:10;;;;;;;;;;;20.80;99.90;;;;;;5053147;28;19925;-74
2022/10/27 09:37:39;;;;;;;;;;;19.50;99.90;;;;;;5068800;28;19928;-74
2022/10/27 09:40:12;;;;;;;;;;;20.80;99.90;;;;;;5066931;28;19928;-73
2022/10/27 09:42:38;;;;;;;;;;;20.90;99.90;;;;;;5063317;28;19928;-74
2022/10/27 09:45:13;;;;;;;;;;;21.00;99.90;;;;;;5065953;28;19932;-74
2022/10/27 09:47:41;;;;;;;;;;;21.10;99.90;;;;;;5058808;28;19929;-74
2022/10/27 09:50:13;;;;;;;;;;;21.10;99.90;;;;;;5056365;28;20055;-74
2022/10/27 09:52:42;;;;;;;;;;;20.60;99.90;;;;;;5062536;28;19944;-74
2022/10/27 09:55:09;;;;;;;;;;;21.30;99.90;;;;;;5067618;28;19928;-73
2022/10/27 09:57:38;;;;;;;;;;;21.30;99.90;;;;;;5066358;28;19929;-72
2022/10/27 10:00:06;;;;;;;;;;;21.30;99.90;;;;;;5070409;28;20296;-73
2022/10/27 10:02:40;;;;;;;;;;;21.40;99.90;;;;;;5062359;28;19958;-74
2022/10/27 10:05:21;;;;;;;;;;;21.50;99.90;;;;;;5065223;28;19929;-73
2022/10/27 10:07:48;;;;;;;;;;;21.50;99.90;;;;;;5063236;28;19932;-73
2022/10/27 10:10:17;;;;;;;;;;;21.60;99.90;;;;;;5063283;28;19993;-73
2022/10/27 10:12:46;;;;;;;;;;;21.70;99.90;;;;;;5058707;28;19998;-73
2022/10/27 10:15:18;;;;;;;;;;;21.70;99.90;;;;;;5056984;28;19925;-73
2022/10/27 10:17:51;;;;;;;;;;;21.70;99.90;;;;;;5062598;28;19929;-73
2022/10/27 10:20:26;;;;;;;;;;;21.70;99.90;;;;;;5062735;28;20342;-74
2022/10/27 10:22:53;;;;;;;;;;;21.70;99.90;;;;;;5061032;28;19933;-75
2022/10/27 10:25:24;;;;;;;;;;;21.70;99.90;;;;;;5068656;28;19929;-74
2022/10/27 10:27:58;;;;;;;;;;;22.00;99.90;;;;;;5069885;28;19960;-74
2022/10/27 10:30:25;;;;;;;;;;;21.90;99.90;;;;;;5069598;28;20249;-74
2022/10/27 10:32:53;;;;;;;;;;;22.00;99.90;;;;;;5062892;28;19937;-74
2022/10/27 10:35:38;;;;;;;;;;;22.20;99.90;;;;;;5066568;28;19951;-74
2022/10/27 10:38:24;;;;;;;;;;;22.40;99.90;;;;;;5065344;28;19948;-75
2022/10/27 10:40:56;;;;;;;;;;;22.50;99.90;;;;;;5068534;28;19928;-76
2022/10/27 10:43:24;;;;;;;;;;;22.70;99.90;;;;;;5061725;28;20016;-76
2022/10/27 10:45:52;;;;;;;;;;;22.70;99.90;;;;;;5073743;28;19951;-76
2022/10/27 10:48:26;;;;;;;;;;;22.70;99.90;;;;;;5071476;28;19924;-78
2022/10/27 10:50:53;;;;;;;;;;;22.70;99.90;;;;;;5069373;28;19943;-75
2022/10/27 10:53:25;;;;;;;;;;;22.70;99.90;;;;;;5074120;28;20602;-75
2022/10/27 10:55:53;;;;;;;;;;;22.70;99.90;;;;;;5068756;28;19936;-73
2022/10/27 10:58:21;;;;;;;;;;;22.90;99.90;;;;;;5065302;28;19936;-74
2022/10/27 11:00:56;;;;;;;;;;;23.00;99.90;;;;;;5061095;28;19986;-73
2022/10/27 11:03:24;;;;;;;;;;;23.10;99.90;;;;;;5082694;28;20168;-74
2022/10/27 11:05:53;;;;;;;;;;;23.20;99.90;;;;;;5059284;28;19924;-74
2022/10/27 11:08:22;;;;;;;;;;;23.20;99.90;;;;;;5068571;28;19931;-74
2022/10/27 11:10:50;;;;;;;;;;;23.30;99.90;;;;;;5061474;28;20027;-73
2022/10/27 11:13:18;;;;;;;;;;;23.50;99.90;;;;;;5066474;28;20355;-75
2022/10/27 11:18:42;;;;;;;;;;;23.60;99.90;;;;;;5031296;28;19936;-75
2022/10/27 11:21:12;;;;;;;;;;;23.90;99.90;;;;;;5036733;28;19933;-76
2022/10/27 11:23:42;;;;;;;;;;;23.90;99.90;;;;;;5061950;22;19979;-78
2022/10/27 11:26:10;;;;;;;;;;;24.00;99.90;;;;;;5050415;28;19932;-78
2022/10/27 11:28:47;;;;;;;;;;;24.10;99.90;;;;;;5055349;28;19994;-78
2022/10/27 11:31:18;;;;;;;;;;;24.10;99.90;;;;;;5046529;28;20391;-78
2022/10/27 11:33:49;;;;;;;;;;;24.00;99.90;;;;;;5061217;28;20384;-77
2022/10/27 11:36:19;;;;;;;;;;;24.10;99.90;;;;;;5049148;28;20355;-78
2022/10/27 11:38:51;;;;;;;;;;;24.10;99.90;;;;;;5045372;28;20494;-77
2022/10/27 11:41:24;;;;;;;;;;;24.20;99.90;;;;;;5046586;28;19971;-77
2022/10/27 11:43:54;;;;;;;;;;;24.20;99.90;;;;;;5048076;28;19936;-77
2022/10/27 11:46:26;;;;;;;;;;;24.30;99.90;;;;;;5047570;28;19982;-78
2022/10/27 11:48:55;;;;;;;;;;;24.40;99.90;;;;;;5044840;28;19979;-78
2022/10/27 11:51:26;;;;;;;;;;;24.30;99.90;;;;;;5040873;28;19925;-77
2022/10/27 11:53:53;;;;;;;;;;;24.30;99.90;;;;;;5047574;28;19932;-78
2022/10/27 11:56:26;;;;;;;;;;;24.30;99.90;;;;;;5048674;28;20302;-76
2022/10/27 11:59:04;;;;;;;;;;;24.40;99.90;;;;;;5045266;28;19929;-77
2022/10/27 12:01:38;;;;;;;;;;;24.40;99.90;;;;;;5047759;28;20024;-81
2022/10/27 12:04:13;;;;;;;;;;;24.40;99.90;;;;;;5047871;28;19932;-77
2022/10/27 12:06:46;;;;;;;;;;;24.30;99.90;;;;;;5048074;28;19968;-77
2022/10/27 12:09:19;;;;;;;;;;;24.20;99.90;;;;;;5048229;28;20034;-77
2022/10/27 12:11:51;;;;;;;;;;;24.10;99.90;;;;;;5048533;28;19929;-77
2022/10/27 12:14:24;;;;;;;;;;;24.10;99.90;;;;;;5042688;28;20354;-80
2022/10/27 12:16:54;;;;;;;;;;;24.10;99.90;;;;;;5043134;28;19925;-78
2022/10/27 12:19:27;;;;;;;;;;;24.00;99.90;;;;;;5046952;28;19985;-78
2022/10/27 12:21:56;;;;;;;;;;;23.90;99.90;;;;;;5048688;28;19928;-78
2022/10/27 12:24:25;;;;;;;;;;;23.80;99.90;;;;;;5046693;28;19982;-77
2022/10/27 12:26:54;;;;;;;;;;;23.70;99.90;;;;;;5047003;28;19925;-78
2022/10/27 12:29:21;;;;;;;;;;;23.70;99.90;;;;;;5046657;28;20015;-79
2022/10/27 12:31:53;;;;;;;;;;;23.70;99.90;;;;;;5047068;28;20365;-79
2022/10/27 12:34:22;;;;;;;;;;;23.80;99.90;;;;;;5047238;28;19924;-78
2022/10/27 12:36:53;;;;;;;;;;;23.80;99.90;;;;;;5049004;28;19925;-79
2022/10/27 12:39:25;;;;;;;;;;;23.80;99.90;;;;;;5047707;28;19935;-78
2022/10/27 12:41:56;;;;;;;;;;;23.90;99.90;;;;;;5046539;28;19929;-80
2022/10/27 12:44:30;;;;;;;;;;;23.90;99.90;;;;;;5054352;28;19948;-80
2022/10/27 12:47:11;;;;;;;;;;;24.00;99.90;;;;;;5045504;28;19928;-78
2022/10/27 12:49:42;;;;;;;;;;;24.10;99.90;;;;;;5046465;28;19972;-80
2022/10/27 12:52:14;;;;;;;;;;;24.10;99.90;;;;;;5047082;28;19925;-79
2022/10/27 12:54:52;;;;;;;;;;;24.00;99.90;;;;;;5048308;28;19976;-79
2022/10/27 12:57:26;;;;;;;;;;;23.80;99.90;;;;;;5047170;28;19935;-80
2022/10/27 12:59:57;;;;;;;;;;;23.70;99.90;;;;;;5048713;28;19955;-79
2022/10/27 13:02:26;;;;;;;;;;;23.60;99.90;;;;;;5046742;28;20350;-78
2022/10/27 13:05:12;;;;;;;;;;;23.50;99.90;;;;;;5047806;28;19951;-79
2022/10/27 13:08:02;;;;;;;;;;;23.40;99.90;;;;;;5043780;28;19961;-80
2022/10/27 13:10:38;;;;;;;;;;;23.40;99.90;;;;;;5045156;28;19975;-79
2022/10/27 13:13:12;;;;;;;;;;;23.30;99.90;;;;;;5044193;28;19924;-81
2022/10/27 13:15:48;;;;;;;;;;;23.30;99.90;;;;;;5045734;28;19928;-79
2022/10/27 13:18:32;;;;;;;;;;;23.30;99.90;;;;;;5038247;28;19933;-80
2022/10/27 13:21:04;;;;;;;;;;;23.40;99.90;;;;;;5044623;28;19933;-80
2022/10/27 13:23:35;;;;;;;;;;;23.40;99.90;;;;;;5045209;28;20387;-79
2022/10/27 13:26:11;;;;;;;;;;;23.40;99.90;;;;;;5048603;28;20003;-79
2022/10/27 13:28:41;;;;;;;;;;;23.40;99.90;;;;;;5042218;28;20304;-80
2022/10/27 13:31:13;;;;;;;;;;;23.50;99.90;;;;;;5046903;28;19970;-79
2022/10/27 13:33:58;;;;;;;;;;;23.50;99.90;;;;;;5047102;28;19933;-79
2022/10/27 13:36:26;;;;;;;;;;;23.50;99.90;;;;;;5048755;28;19928;-80
2022/10/27 13:39:08;;;;;;;;;;;23.50;99.90;;;;;;5049403;28;19924;-79
2022/10/27 13:41:50;;;;;;;;;;;23.50;99.90;;;;;;5053361;28;20384;-79
2022/10/27 13:44:27;;;;;;;;;;;23.50;99.90;;;;;;5052856;28;19978;-80
2022/10/27 13:47:10;;;;;;;;;;;23.50;99.90;;;;;;5053420;28;19986;-78
2022/10/27 13:49:50;;;;;;;;;;;23.50;99.90;;;;;;5054295;28;20316;-77
2022/10/27 13:52:19;;;;;;;;;;;23.60;99.90;;;;;;5054439;28;20647;-80
2022/10/27 13:54:51;;;;;;;;;;;23.60;99.90;;;;;;5052995;28;20341;-77
2022/10/27 13:57:39;;;;;;;;;;;25.10;99.90;;;;;;5052119;28;20396;-78
2022/10/27 14:00:10;;;;;;;;;;;23.50;99.90;;;;;;5028077;28;19975;-78
2022/10/27 14:02:42;;;;;;;;;;;23.40;99.90;;;;;;5053296;28;19939;-79
2022/10/27 14:05:16;;;;;;;;;;;23.30;99.90;;;;;;5053512;28;19924;-80
2022/10/27 14:07:43;;;;;;;;;;;23.20;99.90;;;;;;5054225;28;19936;-79
2022/10/27 14:10:12;;;;;;;;;;;23.10;99.90;;;;;;5055163;28;19986;-79
2022/10/27 14:12:39;;;;;;;;;;;23.00;99.90;;;;;;5054600;28;20334;-80
2022/10/27 14:15:16;;;;;;;;;;;23.00;99.90;;;;;;5056788;28;19939;-78
2022/10/27 14:17:44;;;;;;;;;;;23.00;99.90;;;;;;5055193;28;19925;-79
2022/10/27 14:20:17;;;;;;;;;;;22.90;99.90;;;;;;5054273;28;19932;-78
2022/10/27 14:22:47;;;;;;;;;;;22.90;99.90;;;;;;5054094;28;19932;-79
2022/10/27 14:25:18;;;;;;;;;;;22.80;99.90;;;;;;5055276;28;19974;-79
2022/10/27 14:27:45;;;;;;;;;;;22.80;99.90;;;;;;5058486;28;19924;-80
2022/10/27 14:30:16;;;;;;;;;;;22.70;99.90;;;;;;5058905;28;20426;-76
2022/10/27 14:32:42;;;;;;;;;;;22.60;99.90;;;;;;5059994;28;20476;-77